createdAt,value
2018-05-27T00:00:21.423Z,17.93
2018-05-27T00:02:48.810Z,18.06
2018-05-27T00:05:16.235Z,17.94
2018-05-27T00:07:43.693Z,17.88
2018-05-27T00:10:11.168Z,17.65
2018-05-27T00:12:38.602Z,17.67
2018-05-27T00:15:06.011Z,17.84
2018-05-27T00:17:33.427Z,17.95
2018-05-27T00:20:00.895Z,17.88
2018-05-27T00:22:28.332Z,18.02
2018-05-27T00:24:55.725Z,18.15
2018-05-27T00:27:23.141Z,18.13
2018-05-27T00:29:50.598Z,18.02
2018-05-27T00:32:18.017Z,18.04
2018-05-27T00:34:45.513Z,18.02
2018-05-27T00:37:12.909Z,18.16
2018-05-27T00:39:40.318Z,18.25
2018-05-27T00:42:07.802Z,18.21
2018-05-27T00:44:35.209Z,17.98
2018-05-27T00:47:02.605Z,17.85
2018-05-27T00:49:30.045Z,17.79
2018-05-27T00:51:57.444Z,17.53
2018-05-27T00:54:24.841Z,17.44
2018-05-27T00:56:52.306Z,17.37
2018-05-27T00:59:19.674Z,17.42
2018-05-27T01:01:47.146Z,17.50
2018-05-27T01:04:14.542Z,17.35
2018-05-27T01:06:42.022Z,17.37
2018-05-27T01:09:09.410Z,17.37
2018-05-27T01:11:36.892Z,17.38
2018-05-27T01:14:04.286Z,17.45
2018-05-27T01:16:31.677Z,17.47
2018-05-27T01:18:59.068Z,17.37
2018-05-27T01:21:26.601Z,17.50
2018-05-27T01:23:54.001Z,17.47
2018-05-27T01:26:21.498Z,17.57
2018-05-27T01:28:48.997Z,17.61
2018-05-27T01:31:16.501Z,17.44
2018-05-27T01:33:43.889Z,17.31
2018-05-27T01:36:11.290Z,17.27
2018-05-27T01:38:38.800Z,17.45
2018-05-27T01:41:06.213Z,17.51
2018-05-27T01:43:33.669Z,17.44
2018-05-27T01:46:01.065Z,17.18
2018-05-27T01:48:28.465Z,16.97
2018-05-27T01:50:55.891Z,16.90
2018-05-27T01:53:23.277Z,17.01
2018-05-27T01:55:50.665Z,17.07
2018-05-27T01:58:18.053Z,17.02
2018-05-27T02:00:45.453Z,16.98
2018-05-27T02:03:12.859Z,16.74
2018-05-27T02:05:40.254Z,16.82
2018-05-27T02:08:07.646Z,16.85
2018-05-27T02:10:35.058Z,16.71
2018-05-27T02:13:02.525Z,16.64
2018-05-27T02:15:29.917Z,16.44
2018-05-27T02:17:57.337Z,16.39
2018-05-27T02:20:24.729Z,16.34
2018-05-27T02:22:52.160Z,16.21
2018-05-27T02:25:19.532Z,16.36
2018-05-27T02:27:46.939Z,16.53
2018-05-27T02:30:14.335Z,16.55
2018-05-27T02:32:41.768Z,16.48
2018-05-27T02:35:09.224Z,16.27
2018-05-27T02:37:36.639Z,16.27
2018-05-27T02:40:04.043Z,16.33
2018-05-27T02:42:31.445Z,16.41
2018-05-27T02:44:58.889Z,16.50
2018-05-27T02:47:26.305Z,16.39
2018-05-27T02:49:53.706Z,16.40
2018-05-27T02:52:21.833Z,16.41
2018-05-27T02:54:49.321Z,16.42
2018-05-27T02:57:16.720Z,16.47
2018-05-27T02:59:44.130Z,16.44
2018-05-27T03:02:11.525Z,16.34
2018-05-27T03:04:38.918Z,16.35
2018-05-27T03:07:06.323Z,16.34
2018-05-27T03:09:33.751Z,16.28
2018-05-27T03:12:01.132Z,16.29
2018-05-27T03:14:28.550Z,16.22
2018-05-27T03:16:55.967Z,16.19
2018-05-27T03:19:23.349Z,16.26
2018-05-27T03:21:50.746Z,16.27
2018-05-27T03:24:18.128Z,16.25
2018-05-27T03:26:45.535Z,16.28
2018-05-27T03:29:12.955Z,16.21
2018-05-27T03:31:40.385Z,16.16
2018-05-27T03:34:07.770Z,16.15
2018-05-27T03:36:35.177Z,16.18
2018-05-27T03:39:02.573Z,16.24
2018-05-27T03:41:30.077Z,16.27
2018-05-27T03:43:57.453Z,16.31
2018-05-27T03:46:24.841Z,16.53
2018-05-27T03:48:52.314Z,16.51
2018-05-27T03:51:19.722Z,16.54
2018-05-27T03:53:47.130Z,16.64
2018-05-27T03:56:14.543Z,16.75
2018-05-27T03:58:41.940Z,16.66
2018-05-27T04:01:09.373Z,16.67
2018-05-27T04:03:36.856Z,16.66
2018-05-27T04:06:16.089Z,16.66
2018-05-27T04:08:43.572Z,16.76
2018-05-27T04:11:10.975Z,16.75
2018-05-27T04:13:38.389Z,16.82
2018-05-27T04:16:06.113Z,16.78
2018-05-27T04:18:33.508Z,16.91
2018-05-27T04:21:00.900Z,16.98
2018-05-27T04:23:28.305Z,17.03
2018-05-27T04:25:55.704Z,17.18
2018-05-27T04:28:23.295Z,17.33
2018-05-27T04:30:50.682Z,17.39
2018-05-27T04:33:18.085Z,17.46
2018-05-27T04:35:45.578Z,17.53
2018-05-27T04:38:13.065Z,17.69
2018-05-27T04:40:40.463Z,17.78
2018-05-27T04:43:07.841Z,17.90
2018-05-27T04:45:35.240Z,17.99
2018-05-27T04:48:02.660Z,18.08
2018-05-27T04:50:30.050Z,18.09
2018-05-27T04:52:57.529Z,18.20
2018-05-27T04:55:25.010Z,18.36
2018-05-27T04:57:52.440Z,18.52
2018-05-27T05:00:19.861Z,18.68
2018-05-27T05:02:47.269Z,18.78
2018-05-27T05:05:14.709Z,18.95
2018-05-27T05:07:42.100Z,18.97
2018-05-27T05:10:09.537Z,18.99
2018-05-27T05:12:36.941Z,19.28
2018-05-27T05:15:04.349Z,19.34
2018-05-27T05:17:31.801Z,19.42
2018-05-27T05:19:59.258Z,19.42
2018-05-27T05:22:26.766Z,19.49
2018-05-27T05:24:54.165Z,19.35
2018-05-27T05:27:21.629Z,19.46
2018-05-27T05:29:49.035Z,19.45
2018-05-27T05:32:16.535Z,19.39
2018-05-27T05:34:44.002Z,19.48
2018-05-27T05:37:11.458Z,19.91
2018-05-27T05:39:38.878Z,19.95
2018-05-27T05:42:06.290Z,20.64
2018-05-27T05:44:33.698Z,20.72
2018-05-27T05:47:01.109Z,20.15
2018-05-27T05:49:28.510Z,20.52
2018-05-27T05:51:55.971Z,20.32
2018-05-27T05:54:23.365Z,19.83
2018-05-27T05:56:50.839Z,19.79
2018-05-27T05:59:18.237Z,19.61
2018-05-27T06:01:45.637Z,19.46
2018-05-27T06:04:13.038Z,19.50
2018-05-27T06:06:40.440Z,19.69
2018-05-27T06:09:07.848Z,19.82
2018-05-27T06:11:35.244Z,20.06
2018-05-27T06:14:02.700Z,20.26
2018-05-27T06:16:30.086Z,20.21
2018-05-27T06:18:57.518Z,20.22
2018-05-27T06:21:24.980Z,20.22
2018-05-27T06:23:52.429Z,20.26
2018-05-27T06:26:19.881Z,20.26
2018-05-27T06:28:47.304Z,20.53
2018-05-27T06:31:14.701Z,21.68
2018-05-27T06:33:42.104Z,22.48
2018-05-27T06:36:09.506Z,22.78
2018-05-27T06:38:36.960Z,22.94
2018-05-27T06:41:04.389Z,22.84
2018-05-27T06:43:32.005Z,22.57
2018-05-27T06:45:59.425Z,22.38
2018-05-27T06:48:26.816Z,22.67
2018-05-27T06:50:54.230Z,23.87
2018-05-27T06:53:21.735Z,24.91
2018-05-27T06:55:49.149Z,26.06
2018-05-27T06:58:16.545Z,26.95
2018-05-27T07:00:43.949Z,27.09
2018-05-27T07:03:11.411Z,27.46
2018-05-27T07:05:38.812Z,28.31
2018-05-27T07:08:06.197Z,28.45
2018-05-27T07:10:33.597Z,28.21
2018-05-27T07:13:02.967Z,29.02
2018-05-27T07:15:30.384Z,29.47
2018-05-27T07:17:57.785Z,29.17
2018-05-27T07:20:25.177Z,29.14
2018-05-27T07:22:52.656Z,29.04
2018-05-27T07:25:20.084Z,29.49
2018-05-27T07:27:47.542Z,29.33
2018-05-27T07:30:15.835Z,29.71
2018-05-27T07:32:43.225Z,29.55
2018-05-27T07:35:10.639Z,30.07
2018-05-27T07:37:38.088Z,29.43
2018-05-27T07:40:05.577Z,29.09
2018-05-27T07:42:32.966Z,28.43
2018-05-27T07:45:00.485Z,27.96
2018-05-27T07:47:27.877Z,27.34
2018-05-27T07:49:55.293Z,27.71
2018-05-27T07:52:22.684Z,27.99
2018-05-27T07:54:50.101Z,27.92
2018-05-27T07:57:17.484Z,27.48
2018-05-27T07:59:44.893Z,27.11
2018-05-27T08:02:12.312Z,26.89
2018-05-27T08:04:39.735Z,26.54
2018-05-27T08:07:07.172Z,26.32
2018-05-27T08:09:34.577Z,26.02
2018-05-27T08:12:02.091Z,25.90
2018-05-27T08:14:29.505Z,25.97
2018-05-27T08:16:56.993Z,26.09
2018-05-27T08:19:24.402Z,25.90
2018-05-27T08:21:51.934Z,25.95
2018-05-27T08:24:19.318Z,25.97
2018-05-27T08:26:46.853Z,26.23
2018-05-27T08:29:14.280Z,26.25
2018-05-27T08:31:41.717Z,26.27
2018-05-27T08:34:09.105Z,26.16
2018-05-27T08:36:36.570Z,26.36
2018-05-27T08:39:03.988Z,26.34
2018-05-27T08:41:31.484Z,25.78
2018-05-27T08:43:58.868Z,25.99
2018-05-27T08:46:26.265Z,26.29
2018-05-27T08:48:53.723Z,26.13
2018-05-27T08:51:21.111Z,26.39
2018-05-27T08:53:48.504Z,26.38
2018-05-27T08:56:15.905Z,26.48
2018-05-27T08:58:43.296Z,26.61
2018-05-27T09:01:10.784Z,26.62
2018-05-27T09:03:38.156Z,26.42
2018-05-27T09:06:05.537Z,26.39
2018-05-27T09:08:32.945Z,26.22
2018-05-27T09:11:00.345Z,26.19
2018-05-27T09:13:27.760Z,26.18
2018-05-27T09:15:55.164Z,26.40
2018-05-27T09:18:22.582Z,26.61
2018-05-27T09:20:49.999Z,26.79
2018-05-27T09:23:17.508Z,27.21
2018-05-27T09:25:45.058Z,27.56
2018-05-27T09:28:12.432Z,27.92
2018-05-27T09:30:39.843Z,27.31
2018-05-27T09:33:07.237Z,27.10
2018-05-27T09:35:34.640Z,26.97
2018-05-27T09:38:02.061Z,27.09
2018-05-27T09:40:29.458Z,26.84
2018-05-27T09:42:56.938Z,26.62
2018-05-27T09:45:24.484Z,26.84
2018-05-27T09:47:51.809Z,26.88
2018-05-27T09:50:19.206Z,27.01
2018-05-27T09:52:46.669Z,26.99
2018-05-27T09:55:14.053Z,26.72
2018-05-27T09:57:41.481Z,26.60
2018-05-27T10:00:08.902Z,26.62
2018-05-27T10:02:36.395Z,26.57
2018-05-27T10:05:03.786Z,26.63
2018-05-27T10:07:31.208Z,26.90
2018-05-27T10:09:58.607Z,26.90
2018-05-27T10:12:26.039Z,26.70
2018-05-27T10:14:53.492Z,26.85
2018-05-27T10:17:21.152Z,27.06
2018-05-27T10:19:48.553Z,27.23
2018-05-27T10:22:15.984Z,27.32
2018-05-27T10:24:43.385Z,27.60
2018-05-27T10:27:10.787Z,27.77
2018-05-27T10:29:38.226Z,28.23
2018-05-27T10:32:05.626Z,28.58
2018-05-27T10:34:33.124Z,28.49
2018-05-27T10:37:00.544Z,28.06
2018-05-27T10:39:28.015Z,28.13
2018-05-27T10:41:55.413Z,27.78
2018-05-27T10:44:22.850Z,27.59
2018-05-27T10:46:50.256Z,27.67
2018-05-27T10:49:17.750Z,27.90
2018-05-27T10:51:45.209Z,28.02
2018-05-27T10:54:12.601Z,28.22
2018-05-27T10:56:40.021Z,28.64
2018-05-27T10:59:07.495Z,28.73
2018-05-27T11:01:34.916Z,28.36
2018-05-27T11:04:02.513Z,28.40
2018-05-27T11:06:29.972Z,28.43
2018-05-27T11:08:57.359Z,28.68
2018-05-27T11:11:24.770Z,28.96
2018-05-27T11:13:52.249Z,29.18
2018-05-27T11:16:19.774Z,29.23
2018-05-27T11:18:47.186Z,28.95
2018-05-27T11:21:14.594Z,28.98
2018-05-27T11:23:41.985Z,29.28
2018-05-27T11:26:09.417Z,29.29
2018-05-27T11:28:36.808Z,29.22
2018-05-27T11:31:04.327Z,28.85
2018-05-27T11:33:31.734Z,29.08
2018-05-27T11:35:59.122Z,29.19
2018-05-27T11:38:26.613Z,29.39
2018-05-27T11:40:54.000Z,29.18
2018-05-27T11:43:21.400Z,29.08
2018-05-27T11:45:48.990Z,29.02
2018-05-27T11:48:16.430Z,28.86
2018-05-27T11:50:43.853Z,28.61
2018-05-27T11:53:11.251Z,28.80
2018-05-27T11:55:38.641Z,28.98
2018-05-27T11:58:06.117Z,29.35
2018-05-27T12:00:33.517Z,29.39
2018-05-27T12:03:01.026Z,29.06
2018-05-27T12:05:28.417Z,29.25
2018-05-27T12:07:55.821Z,28.87
2018-05-27T12:10:23.293Z,28.84
2018-05-27T12:12:50.759Z,28.89
2018-05-27T12:15:18.152Z,28.96
2018-05-27T12:17:45.614Z,29.24
2018-05-27T12:20:13.108Z,29.10
2018-05-27T12:22:40.565Z,29.32
2018-05-27T12:25:07.997Z,29.53
2018-05-27T12:27:35.488Z,29.51
2018-05-27T12:30:03.834Z,29.70
2018-05-27T12:32:31.243Z,29.99
2018-05-27T12:34:58.708Z,30.23
2018-05-27T12:37:26.113Z,29.95
2018-05-27T12:39:53.509Z,29.77
2018-05-27T12:42:20.933Z,30.27
2018-05-27T12:44:48.409Z,30.34
2018-05-27T12:47:15.837Z,30.29
2018-05-27T12:49:43.362Z,30.20
2018-05-27T12:52:10.800Z,30.72
2018-05-27T12:54:38.205Z,30.66
2018-05-27T12:57:05.601Z,30.40
2018-05-27T12:59:33.085Z,30.77
2018-05-27T13:02:00.488Z,31.15
2018-05-27T13:04:27.969Z,31.07
2018-05-27T13:06:55.388Z,31.20
2018-05-27T13:09:22.765Z,31.04
2018-05-27T13:11:50.794Z,30.62
2018-05-27T13:14:18.186Z,30.48
2018-05-27T13:16:45.692Z,30.98
2018-05-27T13:19:13.017Z,31.01
2018-05-27T13:21:40.413Z,31.07
2018-05-27T13:24:07.805Z,30.98
2018-05-27T13:26:35.297Z,31.43
2018-05-27T13:29:02.721Z,31.81
2018-05-27T13:31:30.146Z,31.84
2018-05-27T13:33:57.578Z,31.90
2018-05-27T13:36:24.979Z,31.72
2018-05-27T13:38:52.364Z,31.22
2018-05-27T13:41:19.762Z,31.06
2018-05-27T13:43:47.182Z,30.98
2018-05-27T13:46:14.664Z,31.03
2018-05-27T13:48:42.101Z,30.76
2018-05-27T13:51:09.575Z,30.39
2018-05-27T13:53:36.969Z,30.17
2018-05-27T13:56:04.412Z,30.01
2018-05-27T13:58:31.830Z,30.10
2018-05-27T14:00:59.304Z,30.07
2018-05-27T14:03:26.749Z,30.11
2018-05-27T14:05:54.134Z,29.89
2018-05-27T14:08:21.540Z,29.78
2018-05-27T14:10:48.950Z,30.07
2018-05-27T14:13:16.386Z,30.21
2018-05-27T14:15:43.769Z,30.43
2018-05-27T14:18:11.191Z,30.55
2018-05-27T14:20:38.660Z,30.46
2018-05-27T14:23:06.065Z,30.37
2018-05-27T14:25:33.561Z,29.98
2018-05-27T14:28:00.945Z,29.73
2018-05-27T14:30:28.366Z,29.48
2018-05-27T14:32:55.826Z,29.36
2018-05-27T14:35:23.221Z,29.34
2018-05-27T14:37:50.645Z,29.60
2018-05-27T14:40:18.113Z,29.88
2018-05-27T14:42:45.569Z,30.09
2018-05-27T14:45:12.949Z,30.09
2018-05-27T14:47:40.345Z,29.88
2018-05-27T14:50:07.745Z,30.10
2018-05-27T14:52:35.177Z,30.25
2018-05-27T14:55:02.605Z,30.26
2018-05-27T14:57:30.100Z,30.32
2018-05-27T14:59:57.865Z,30.28
2018-05-27T15:02:25.214Z,30.30
2018-05-27T15:04:52.609Z,30.22
2018-05-27T15:07:20.015Z,30.31
2018-05-27T15:09:47.478Z,30.46
2018-05-27T15:12:15.008Z,30.44
2018-05-27T15:14:42.405Z,30.36
2018-05-27T15:17:09.785Z,30.60
2018-05-27T15:19:37.192Z,30.76
2018-05-27T15:22:04.601Z,30.89
2018-05-27T15:24:32.023Z,30.77
2018-05-27T15:26:59.483Z,30.80
2018-05-27T15:29:26.942Z,30.99
2018-05-27T15:31:54.373Z,31.07
2018-05-27T15:34:21.775Z,30.97
2018-05-27T15:36:49.156Z,30.85
2018-05-27T15:39:16.562Z,30.77
2018-05-27T15:41:43.949Z,30.71
2018-05-27T15:44:11.358Z,30.35
2018-05-27T15:46:38.858Z,30.31
2018-05-27T15:49:06.265Z,30.37
2018-05-27T15:51:33.676Z,30.40
2018-05-27T15:54:01.104Z,30.30
2018-05-27T15:56:28.570Z,30.36
2018-05-27T15:58:55.985Z,30.50
2018-05-27T16:01:23.478Z,30.41
2018-05-27T16:03:50.899Z,30.15
2018-05-27T16:06:18.365Z,29.76
2018-05-27T16:08:45.824Z,29.51
2018-05-27T16:11:13.237Z,29.17
2018-05-27T16:13:40.735Z,29.07
2018-05-27T16:16:08.197Z,29.05
2018-05-27T16:18:35.601Z,29.08
2018-05-27T16:21:02.997Z,28.96
2018-05-27T16:23:30.446Z,28.83
2018-05-27T16:25:57.840Z,28.71
2018-05-27T16:28:25.253Z,28.75
2018-05-27T16:30:52.738Z,28.74
2018-05-27T16:33:20.132Z,28.76
2018-05-27T16:35:47.533Z,28.68
2018-05-27T16:38:14.927Z,28.63
2018-05-27T16:40:42.367Z,28.59
2018-05-27T16:43:09.748Z,28.63
2018-05-27T16:45:37.270Z,28.47
2018-05-27T16:48:04.718Z,28.61
2018-05-27T16:50:32.138Z,28.67
2018-05-27T16:52:59.648Z,28.73
2018-05-27T16:55:27.083Z,28.36
2018-05-27T16:57:54.469Z,28.27
2018-05-27T17:00:21.915Z,28.22
2018-05-27T17:02:49.399Z,28.27
2018-05-27T17:05:16.796Z,28.29
2018-05-27T17:07:44.272Z,28.26
2018-05-27T17:10:11.639Z,28.33
2018-05-27T17:12:39.133Z,28.45
2018-05-27T17:15:06.533Z,28.41
2018-05-27T17:17:33.923Z,28.38
2018-05-27T17:20:01.334Z,28.52
2018-05-27T17:22:28.735Z,28.52
2018-05-27T17:24:56.120Z,28.59
2018-05-27T17:27:23.528Z,28.67
2018-05-27T17:29:50.937Z,28.43
2018-05-27T17:32:18.375Z,28.10
2018-05-27T17:34:45.812Z,28.05
2018-05-27T17:37:13.261Z,28.07
2018-05-27T17:39:40.725Z,28.14
2018-05-27T17:42:08.129Z,28.08
2018-05-27T17:44:35.546Z,28.24
2018-05-27T17:47:03.001Z,28.23
2018-05-27T17:49:30.381Z,28.31
2018-05-27T17:51:57.776Z,28.21
2018-05-27T17:54:25.339Z,28.29
2018-05-27T17:56:52.726Z,28.20
2018-05-27T17:59:20.114Z,28.23
2018-05-27T18:01:47.653Z,28.09
2018-05-27T18:04:15.090Z,27.97
2018-05-27T18:06:42.444Z,27.96
2018-05-27T18:09:09.829Z,27.96
2018-05-27T18:11:37.256Z,27.87
2018-05-27T18:14:04.644Z,27.95
2018-05-27T18:16:32.049Z,28.11
2018-05-27T18:18:59.529Z,27.86
2018-05-27T18:21:26.988Z,27.83
2018-05-27T18:23:54.495Z,27.94
2018-05-27T18:26:21.837Z,27.98
2018-05-27T18:28:49.469Z,27.96
2018-05-27T18:31:16.877Z,27.91
2018-05-27T18:33:44.265Z,27.88
2018-05-27T18:36:11.757Z,27.85
2018-05-27T18:38:39.192Z,27.79
2018-05-27T18:41:06.614Z,27.68
2018-05-27T18:43:34.002Z,27.61
2018-05-27T18:46:01.393Z,27.66
2018-05-27T18:48:28.791Z,27.57
2018-05-27T18:50:56.197Z,27.53
2018-05-27T18:53:23.640Z,27.44
2018-05-27T18:55:50.993Z,27.13
2018-05-27T18:58:18.443Z,27.03
2018-05-27T19:00:45.898Z,26.68
2018-05-27T19:03:13.301Z,26.47
2018-05-27T19:05:40.714Z,26.26
2018-05-27T19:08:08.103Z,26.13
2018-05-27T19:10:35.505Z,25.98
2018-05-27T19:13:02.964Z,25.68
2018-05-27T19:15:30.304Z,25.66
2018-05-27T19:17:57.757Z,25.67
2018-05-27T19:20:25.162Z,25.68
2018-05-27T19:22:53.460Z,25.47
2018-05-27T19:25:20.832Z,25.12
2018-05-27T19:27:48.354Z,25.17
2018-05-27T19:30:15.740Z,25.19
2018-05-27T19:32:43.157Z,25.02
2018-05-27T19:35:10.553Z,24.94
2018-05-27T19:37:37.949Z,24.75
2018-05-27T19:40:05.348Z,24.79
2018-05-27T19:42:32.740Z,24.66
2018-05-27T19:45:00.160Z,24.54
2018-05-27T19:47:27.594Z,24.43
2018-05-27T19:49:54.989Z,24.41
2018-05-27T19:52:22.405Z,24.38
2018-05-27T19:54:49.842Z,24.33
2018-05-27T19:57:17.213Z,24.21
2018-05-27T19:59:44.686Z,24.06
2018-05-27T20:02:12.143Z,23.97
2018-05-27T20:04:39.585Z,23.87
2018-05-27T20:07:07.040Z,23.82
2018-05-27T20:09:34.446Z,23.78
2018-05-27T20:12:01.864Z,23.70
2018-05-27T20:14:29.241Z,23.62
2018-05-27T20:16:56.657Z,23.60
2018-05-27T20:19:24.052Z,23.60
2018-05-27T20:21:51.445Z,23.64
2018-05-27T20:24:18.856Z,23.60
2018-05-27T20:26:46.273Z,23.72
2018-05-27T20:29:13.773Z,23.62
2018-05-27T20:31:41.200Z,23.49
2018-05-27T20:34:08.584Z,23.48
2018-05-27T20:36:36.020Z,23.49
2018-05-27T20:39:03.416Z,23.55
2018-05-27T20:41:30.818Z,23.46
2018-05-27T20:43:58.228Z,23.39
2018-05-27T20:46:25.647Z,23.42
2018-05-27T20:48:53.101Z,23.27
2018-05-27T20:51:20.486Z,23.25
2018-05-27T20:53:47.929Z,23.25
2018-05-27T20:56:15.349Z,23.24
2018-05-27T20:58:42.825Z,23.27
2018-05-27T21:01:10.213Z,23.35
2018-05-27T21:03:37.616Z,23.43
2018-05-27T21:06:05.008Z,23.35
2018-05-27T21:08:32.433Z,23.36
2018-05-27T21:10:59.841Z,23.41
2018-05-27T21:13:27.266Z,23.28
2018-05-27T21:15:54.729Z,23.30
2018-05-27T21:18:22.131Z,23.41
2018-05-27T21:20:49.525Z,23.42
2018-05-27T21:23:17.009Z,23.25
2018-05-27T21:25:44.426Z,23.26
2018-05-27T21:28:11.828Z,23.23
2018-05-27T21:30:39.236Z,23.22
2018-05-27T21:33:06.733Z,23.14
2018-05-27T21:35:34.133Z,23.01
2018-05-27T21:38:01.636Z,23.03
2018-05-27T21:40:29.036Z,22.96
2018-05-27T21:42:56.464Z,23.03
2018-05-27T21:45:23.904Z,22.90
2018-05-27T21:47:51.293Z,22.89
2018-05-27T21:50:18.715Z,22.77
2018-05-27T21:52:46.108Z,22.87
2018-05-27T21:55:13.526Z,22.79
2018-05-27T21:57:40.917Z,22.78
2018-05-27T22:00:08.317Z,22.85
2018-05-27T22:02:35.802Z,22.97
2018-05-27T22:05:03.193Z,22.84
2018-05-27T22:07:30.610Z,22.89
2018-05-27T22:09:58.008Z,22.79
2018-05-27T22:12:25.396Z,22.95
2018-05-27T22:14:52.809Z,23.03
2018-05-27T22:17:20.243Z,23.08
2018-05-27T22:19:47.689Z,23.08
2018-05-27T22:22:15.093Z,23.13
2018-05-27T22:24:42.480Z,23.07
2018-05-27T22:27:09.980Z,23.04
2018-05-27T22:29:37.424Z,22.98
2018-05-27T22:32:04.889Z,22.98
2018-05-27T22:34:32.309Z,22.97
2018-05-27T22:36:59.694Z,22.99
2018-05-27T22:39:27.102Z,23.04
2018-05-27T22:41:54.599Z,22.92
2018-05-27T22:44:21.998Z,23.04
2018-05-27T22:46:49.387Z,23.13
2018-05-27T22:49:16.794Z,23.00
2018-05-27T22:51:44.193Z,22.89
2018-05-27T22:54:11.625Z,22.99
2018-05-27T22:56:39.008Z,23.11
2018-05-27T22:59:06.409Z,23.10
2018-05-27T23:01:33.848Z,23.09
2018-05-27T23:04:01.245Z,23.10
2018-05-27T23:06:28.674Z,23.04
2018-05-27T23:08:56.129Z,23.18
2018-05-27T23:11:23.517Z,23.06
2018-05-27T23:13:50.971Z,23.25
2018-05-27T23:16:18.440Z,23.43
2018-05-27T23:18:45.861Z,23.38
2018-05-27T23:21:13.253Z,23.19
2018-05-27T23:23:41.293Z,23.22
2018-05-27T23:26:08.682Z,23.05
2018-05-27T23:28:36.091Z,23.02
2018-05-27T23:31:03.476Z,22.89
2018-05-27T23:33:30.890Z,22.85
2018-05-27T23:35:58.382Z,22.93
2018-05-27T23:38:25.774Z,22.82
2018-05-27T23:40:53.196Z,22.82
2018-05-27T23:43:20.637Z,22.83
2018-05-27T23:45:48.029Z,22.67
2018-05-27T23:48:15.464Z,22.62
2018-05-27T23:50:42.864Z,22.51
2018-05-27T23:53:10.257Z,22.51
2018-05-27T23:55:37.713Z,22.28
2018-05-27T23:58:05.105Z,22.14
